KMDJ/MDJ METAR and TAF weather

Enter ICAO airport designator
Station Type Date Time Source
KMDJ METAR 2019/09/30 01:40 UTC NOAA

KMDJ 300140Z AUTO 11018KT 29/24 A3008 RMK A01


Station Type Date Time Source
KMDJ Decoded METAR 2019/09/30 01:40 UTC NOAA

Mississippi Canyon, LA, United States (KMDJ) 28-38-33N 089-47-39W
Sep 29, 2019 - 09:40 PM EDT / 2019.09.30 0140 UTC
Wind: from the ESE (110 degrees) at 21 MPH (18 KT):0
Temperature: 84 F (29 C)
Dew Point: 75 F (24 C)
Relative Humidity: 74%
Pressure (altimeter): 30.08 in. Hg (1018 hPa)
ob: KMDJ 300140Z AUTO 11018KT 29/24 A3008 RMK A01
cycle: 1

Station Type Date Time Source
KMDJ TAF UTC NOAA

Error!

Example: see airport list